Time;durP1;ratioP1;P1;durP2;ratioP2;P2;SDS_P1;SDS_P2;PMS_P1;PMS_P2;Temp;Humidity;BMP_temperature;BMP_pressure;BME280_temperature;BME280_humidity;BME280_pressure;Samples;Min_cycle;Max_cycle;Signal;HPM_P1;HPM_P2
2022/12/16 00:00:02;;;;;;;32.25;9.10;;;;;;;23.40;50.22;98660.00;7309621;19;129225;-63
2022/12/16 00:02:27;;;;;;;29.88;8.23;;;;;;;23.46;49.98;98654.03;7309838;19;129218;-66
2022/12/16 00:04:53;;;;;;;46.50;9.27;;;;;;;23.37;49.96;98639.34;7308219;19;130873;-65
2022/12/16 00:07:18;;;;;;;36.23;8.90;;;;;;;23.47;50.51;98649.63;7310636;19;131904;-66
2022/12/16 00:09:43;;;;;;;50.60;9.30;;;;;;;23.47;50.06;98645.16;7306971;19;129106;-67
2022/12/16 00:12:09;;;;;;;42.60;9.77;;;;;;;23.46;50.42;98643.56;7305545;19;130014;-66
2022/12/16 00:14:34;;;;;;;34.55;8.95;;;;;;;23.39;50.61;98640.00;7310780;19;129359;-64
2022/12/16 00:17:00;;;;;;;16.85;7.38;;;;;;;23.36;50.75;98645.59;7307808;19;131996;-66
2022/12/16 00:19:25;;;;;;;40.45;9.35;;;;;;;23.26;50.60;98637.09;7312081;19;129856;-65
2022/12/16 00:21:50;;;;;;;57.00;10.48;;;;;;;23.21;50.79;98649.91;7317546;19;129008;-66
2022/12/16 00:24:16;;;;;;;37.70;9.67;;;;;;;23.15;51.48;98651.41;7309688;19;130392;-67
2022/12/16 00:26:41;;;;;;;41.17;9.70;;;;;;;23.11;51.58;98649.31;7310352;19;129600;-67
2022/12/16 00:29:09;;;;;;;41.30;9.30;;;;;;;23.05;51.45;98642.97;7310299;19;129233;-64
2022/12/16 00:31:35;;;;;;;24.17;7.85;;;;;;;22.97;51.66;98647.44;7309803;19;129314;-67
2022/12/16 00:34:00;;;;;;;26.50;8.03;;;;;;;22.98;52.11;98635.94;7310377;19;129467;-66
2022/12/16 00:36:25;;;;;;;36.20;8.63;;;;;;;22.93;51.97;98636.47;7308818;19;131230;-67
2022/12/16 00:38:51;;;;;;;57.28;10.23;;;;;;;23.00;51.44;98641.84;7306746;19;129264;-65
2022/12/16 00:41:17;;;;;;;43.10;9.17;;;;;;;23.03;51.29;98647.56;7305847;19;129592;-65
2022/12/16 00:43:42;;;;;;;39.73;9.17;;;;;;;23.06;51.01;98649.00;7310040;19;129336;-66
2022/12/16 00:46:07;;;;;;;55.15;9.75;;;;;;;23.09;51.10;98636.38;7307157;19;129579;-67
2022/12/16 00:48:33;;;;;;;27.02;8.18;;;;;;;23.14;51.01;98643.72;7309702;19;129611;-66
2022/12/16 00:50:58;;;;;;;21.27;7.20;;;;;;;23.23;50.69;98651.38;7309710;19;130090;-64
2022/12/16 00:53:24;;;;;;;49.97;9.82;;;;;;;23.16;50.75;98637.31;7307357;19;129029;-66
2022/12/16 00:55:50;;;;;;;45.78;8.90;;;;;;;23.34;51.10;98657.25;7308553;19;129676;-66
2022/12/16 00:58:16;;;;;;;46.37;9.83;;;;;;;23.39;50.62;98657.56;7309325;19;129470;-64
2022/12/16 01:00:41;;;;;;;55.22;9.90;;;;;;;23.27;50.17;98636.13;7305246;19;129728;-67
2022/12/16 01:03:07;;;;;;;29.03;8.50;;;;;;;23.44;50.49;98650.78;7308479;19;132164;-65
2022/12/16 01:05:32;;;;;;;42.20;9.37;;;;;;;23.47;49.81;98639.94;7309522;19;129555;-66
2022/12/16 01:07:57;;;;;;;38.10;8.70;;;;;;;23.53;49.74;98639.25;7308513;19;128912;-68
2022/12/16 01:10:24;;;;;;;42.28;9.20;;;;;;;23.46;49.57;98637.47;7308254;19;129301;-64
2022/12/16 01:12:49;;;;;;;;;;;;;;;23.41;49.81;98651.13;7316831;19;129526;-64
2022/12/16 01:15:16;;;;;;;41.08;9.15;;;;;;;23.42;50.33;98651.94;7322863;19;129186;-67
2022/12/16 01:17:41;;;;;;;34.42;8.38;;;;;;;23.37;50.71;98651.66;7318244;19;128783;-65
2022/12/16 01:20:07;;;;;;;34.63;9.20;;;;;;;23.31;51.12;98660.19;7316902;19;129107;-68
2022/12/16 01:22:33;;;;;;;37.77;8.93;;;;;;;23.24;51.07;98662.66;7315169;19;129510;-64
2022/12/16 01:24:59;;;;;;;63.75;10.57;;;;;;;23.13;50.90;98663.88;7316178;19;129703;-66
2022/12/16 01:27:26;;;;;;;49.50;9.73;;;;;;;23.04;50.91;98667.53;7316413;19;129508;-66
2022/12/16 01:29:51;;;;;;;45.75;9.10;;;;;;;22.99;51.61;98661.19;7316036;19;130340;-66
2022/12/16 01:32:16;;;;;;;57.93;10.30;;;;;;;22.98;51.99;98660.34;7312731;19;129013;-65
2022/12/16 01:34:42;;;;;;;33.78;8.68;;;;;;;22.97;51.77;98655.28;7315172;19;129426;-67
2022/12/16 01:37:11;;;;;;;31.00;8.23;;;;;;;23.03;51.43;98657.22;7315944;19;128897;-68
2022/12/16 01:39:37;;;;;;;30.85;7.97;;;;;;;23.04;51.24;98654.41;7313200;19;129490;-65
2022/12/16 01:42:03;;;;;;;38.45;8.30;;;;;;;23.07;50.67;98648.03;7313683;19;130925;-64
2022/12/16 01:44:28;;;;;;;32.08;7.97;;;;;;;23.03;51.30;98625.75;7313765;19;132396;-66
2022/12/16 01:46:58;;;;;;;37.67;9.27;;;;;;;23.18;50.59;98637.97;7315176;19;128867;-66
2022/12/16 01:49:33;;;;;;;36.13;8.85;;;;;;;23.21;51.18;98634.16;7314947;19;129170;-65
2022/12/16 01:52:01;;;;;;;32.42;8.65;;;;;;;23.24;50.59;98636.44;7312608;19;129392;-65
2022/12/16 01:54:34;;;;;;;52.97;9.75;;;;;;;23.30;50.56;98635.81;7312796;19;132195;-67
2022/12/16 01:57:05;;;;;;;25.38;7.55;;;;;;;23.23;49.87;98619.09;7316066;19;128965;-64
2022/12/16 01:59:34;;;;;;;26.27;7.68;;;;;;;23.41;50.23;98630.16;7314866;19;128921;-65
2022/12/16 02:02:01;;;;;;;28.13;7.97;;;;;;;23.41;50.11;98627.53;7312885;19;129640;-67
2022/12/16 02:04:26;;;;;;;44.70;9.48;;;;;;;23.50;49.67;98626.47;7314184;19;129506;-66
2022/12/16 02:06:52;;;;;;;51.20;9.07;;;;;;;23.52;49.53;98629.72;7314213;19;128669;-65
2022/12/16 02:09:18;;;;;;;50.75;9.18;;;;;;;23.49;49.58;98632.69;7313929;19;129225;-65
2022/12/16 02:12:29;;;;;;;36.10;8.53;;;;;;;23.47;49.78;98637.31;7321233;19;129119;-64
2022/12/16 02:15:03;;;;;;;46.35;9.40;;;;;;;23.43;49.94;98628.16;7313425;19;129766;-65
2022/12/16 02:17:35;;;;;;;29.40;8.20;;;;;;;23.35;49.76;98609.88;7313624;19;129305;-68
2022/12/16 02:20:26;;;;;;;30.40;7.95;;;;;;;23.20;50.45;98585.34;7314709;19;128936;-65
2022/12/16 02:23:03;;;;;;;31.70;7.47;;;;;;;23.22;51.06;98623.50;7311591;19;129437;-66
2022/12/16 02:25:47;;;;;;;;;;;;;;;23.12;50.59;98606.38;7311595;19;130589;-67
2022/12/16 02:28:21;;;;;;;48.97;9.07;;;;;;;23.08;51.53;98611.16;7312614;19;129672;-66
2022/12/16 02:30:54;;;;;;;45.75;8.40;;;;;;;22.90;51.52;98588.81;7313716;19;129143;-66
2022/12/16 02:33:28;;;;;;;27.33;7.45;;;;;;;22.88;51.40;98591.59;7314104;19;129337;-65
2022/12/16 02:36:26;;;;;;;35.78;7.68;;;;;;;22.97;51.27;98608.09;7313932;19;129620;-64
2022/12/16 02:39:10;;;;;;;34.85;7.85;;;;;;;23.00;51.30;98595.47;7311269;19;129504;-66
2022/12/16 02:41:38;;;;;;;31.58;7.72;;;;;;;22.97;51.63;98589.75;7312053;19;129891;-64
2022/12/16 02:44:07;;;;;;;33.38;8.15;;;;;;;23.05;51.05;98593.16;7313169;19;129595;-66
2022/12/16 02:46:38;;;;;;;31.80;8.05;;;;;;;23.00;50.85;98571.88;7312604;19;129138;-66
2022/12/16 02:49:06;;;;;;;39.55;8.00;;;;;;;23.10;51.05;98579.50;7313901;19;129028;-65
2022/12/16 02:51:35;;;;;;;35.03;8.73;;;;;;;23.20;50.10;98596.63;7312330;19;129154;-66
2022/12/16 02:54:00;;;;;;;33.85;7.95;;;;;;;23.25;50.43;98596.13;7313553;19;130823;-66
2022/12/16 02:56:37;;;;;;;20.55;7.30;;;;;;;23.29;49.78;98594.81;7310409;19;131995;-68
2022/12/16 02:59:14;;;;;;;39.22;8.27;;;;;;;23.33;49.71;98590.84;7311477;19;129058;-66
2022/12/16 03:01:50;;;;;;;22.80;7.28;;;;;;;23.42;50.24;98600.28;7311445;19;129402;-67
2022/12/16 03:04:26;;;;;;;56.15;9.52;;;;;;;23.43;49.46;98595.88;7313473;19;130718;-65
2022/12/16 03:06:53;;;;;;;37.22;8.30;;;;;;;23.45;49.98;98578.97;7320895;19;129167;-66
2022/12/16 03:09:28;;;;;;;32.50;8.15;;;;;;;23.48;49.13;98581.25;7312619;19;129518;-68
2022/12/16 03:11:55;;;;;;;34.78;7.80;;;;;;;23.54;49.18;98585.78;7311183;19;128770;-66
2022/12/16 03:14:24;;;;;;;31.73;7.40;;;;;;;23.53;49.58;98580.69;7313457;19;130768;-66
2022/12/16 03:16:50;;;;;;;51.35;8.70;;;;;;;23.51;49.97;98577.44;7312315;19;129070;-66
2022/12/16 03:19:16;;;;;;;47.90;8.90;;;;;;;23.32;50.37;98557.72;7312643;19;128925;-67
2022/12/16 03:21:51;;;;;;;36.60;7.85;;;;;;;23.31;50.56;98566.59;7310699;19;128853;-65
2022/12/16 03:24:17;;;;;;;45.47;8.52;;;;;;;23.27;50.83;98577.63;7311948;19;131131;-67
2022/12/16 03:26:53;;;;;;;34.85;8.38;;;;;;;23.05;50.44;98553.81;7312840;19;129879;-66
2022/12/16 03:29:33;;;;;;;47.42;8.68;;;;;;;23.07;51.39;98569.38;7311680;19;129531;-66
2022/12/16 03:32:22;;;;;;;30.02;7.28;;;;;;;22.99;51.28;98572.84;7310379;19;130969;-67
2022/12/16 03:34:51;;;;;;;33.55;7.72;;;;;;;23.00;51.76;98576.28;7311743;19;129076;-64
2022/12/16 03:37:21;;;;;;;50.83;9.05;;;;;;;23.09;51.18;98570.81;7310509;19;133263;-65
2022/12/16 03:39:50;;;;;;;37.13;8.07;;;;;;;23.20;50.68;98577.47;7311126;19;129270;-67
2022/12/16 03:42:16;;;;;;;35.83;7.63;;;;;;;23.23;50.11;98558.78;7310341;19;129648;-65
2022/12/16 03:44:43;;;;;;;49.73;7.93;;;;;;;23.55;49.21;98576.09;7312004;19;129950;-65
2022/12/16 03:47:09;;;;;;;;;;;;;;;23.65;49.15;98576.66;7312439;19;129594;-66
2022/12/16 03:49:35;;;;;;;22.75;7.22;;;;;;;23.85;48.49;98578.59;7312508;19;129766;-64
2022/12/16 03:52:00;;;;;;;29.33;7.33;;;;;;;23.97;48.50;98568.47;7310260;19;129010;-66
2022/12/16 03:54:26;;;;;;;38.27;7.93;;;;;;;24.03;47.83;98565.97;7312054;19;129999;-66
2022/12/16 03:56:51;;;;;;;34.57;7.40;;;;;;;24.20;47.64;98574.50;7312160;19;129265;-67
2022/12/16 03:59:17;;;;;;;47.08;8.52;;;;;;;24.19;48.02;98573.69;7311402;19;129095;-64
2022/12/16 04:01:42;;;;;;;50.23;7.93;;;;;;;24.13;47.78;98563.91;7317144;19;128968;-67
2022/12/16 04:04:08;;;;;;;41.53;7.90;;;;;;;24.32;47.51;98581.75;7312528;19;129477;-67
2022/12/16 04:06:34;;;;;;;24.75;5.80;;;;;;;24.35;47.01;98581.41;7311323;19;130147;-64
2022/12/16 04:08:59;;;;;;;28.45;7.10;;;;;;;24.40;47.03;98583.47;7308628;19;130700;-64
2022/12/16 04:25:20;;;;;;;74.03;9.80;;;;;;;24.48;46.64;98597.31;7309940;19;129306;-66
2022/12/16 04:27:46;;;;;;;37.78;7.68;;;;;;;24.46;47.08;98591.44;7310667;19;130492;-63
2022/12/16 04:30:20;;;;;;;36.20;7.50;;;;;;;24.43;47.18;98591.81;7308056;19;129887;-63
